createdAt,value
2023-05-18T00:01:41.126Z,99938.88
2023-05-18T00:04:08.261Z,99943.19
2023-05-18T00:06:34.902Z,99937.00
2023-05-18T00:09:01.413Z,99939.38
2023-05-18T00:11:27.911Z,99939.44
2023-05-18T00:13:54.447Z,99938.44
2023-05-18T00:16:27.417Z,99941.16
2023-05-18T00:18:54.783Z,99935.00
2023-05-18T00:21:24.988Z,99932.81
2023-05-18T00:23:54.627Z,99931.97
2023-05-18T00:26:23.288Z,99935.31
2023-05-18T00:28:52.632Z,99941.44
2023-05-18T00:31:19.235Z,99935.19
2023-05-18T00:33:45.855Z,99937.75
2023-05-18T00:36:12.379Z,99939.28
2023-05-18T00:38:38.899Z,99939.31
2023-05-18T00:41:05.512Z,99937.59
2023-05-18T00:43:32.055Z,99940.09
2023-05-18T00:45:58.764Z,99941.88
2023-05-18T00:48:26.716Z,99942.66
2023-05-18T00:50:54.036Z,99946.13
2023-05-18T00:53:23.369Z,99938.31
2023-05-18T00:55:49.961Z,99943.50
2023-05-18T00:58:17.171Z,99946.88
2023-05-18T01:00:47.271Z,99947.84
2023-05-18T01:03:15.394Z,99943.41
2023-05-18T01:05:47.621Z,99950.25
2023-05-18T01:08:17.832Z,99948.44
2023-05-18T01:10:50.755Z,99945.81
2023-05-18T01:13:31.111Z,99942.28
2023-05-18T01:16:02.322Z,99948.38
2023-05-18T01:18:38.291Z,99947.47
2023-05-18T01:21:31.635Z,99956.16
2023-05-18T01:24:25.861Z,99953.47
2023-05-18T01:26:57.619Z,99958.47
2023-05-18T01:29:29.324Z,99951.47
2023-05-18T01:31:55.899Z,99958.38
2023-05-18T01:34:22.515Z,99952.19
2023-05-18T01:36:49.075Z,99959.94
2023-05-18T01:39:16.268Z,99959.16
2023-05-18T01:41:56.270Z,99963.50
2023-05-18T01:44:38.925Z,99964.19
2023-05-18T01:47:16.795Z,99964.91
2023-05-18T01:49:51.523Z,99970.84
2023-05-18T01:52:37.984Z,99966.41
2023-05-18T01:55:06.528Z,99966.69
2023-05-18T01:57:35.162Z,99966.03
2023-05-18T02:00:04.654Z,99971.38
2023-05-18T02:02:31.359Z,99970.25
2023-05-18T02:04:57.896Z,99966.59
2023-05-18T02:07:24.377Z,99971.75
2023-05-18T02:09:51.018Z,99960.34
2023-05-18T02:12:17.499Z,99959.66
2023-05-18T02:14:44.024Z,99960.38
2023-05-18T02:17:11.607Z,99969.88
2023-05-18T02:19:38.716Z,99970.81
2023-05-18T02:22:09.637Z,99962.13
2023-05-18T02:24:36.215Z,99968.09
2023-05-18T02:27:02.759Z,99964.31
2023-05-18T02:29:32.451Z,99966.00
2023-05-18T02:31:59.084Z,99959.91
2023-05-18T02:34:27.431Z,99964.34
2023-05-18T02:36:57.815Z,99967.78
2023-05-18T02:39:27.932Z,99965.06
2023-05-18T02:41:54.542Z,99961.44
2023-05-18T02:44:21.722Z,99969.47
2023-05-18T02:46:48.309Z,99969.38
2023-05-18T02:49:14.847Z,99968.19
2023-05-18T02:51:44.804Z,99966.44
2023-05-18T02:54:11.447Z,99969.13
2023-05-18T02:56:38.528Z,99964.81
2023-05-18T02:59:07.932Z,99961.22
2023-05-18T03:01:37.231Z,99963.09
2023-05-18T03:04:06.696Z,99956.97
2023-05-18T03:06:33.393Z,99963.09
2023-05-18T03:08:59.966Z,99961.50
2023-05-18T03:11:26.536Z,99962.22
2023-05-18T03:13:53.123Z,99968.00
2023-05-18T03:16:19.833Z,99968.84
2023-05-18T03:18:46.885Z,99973.00
2023-05-18T03:21:16.716Z,99976.28
2023-05-18T03:23:43.251Z,99965.59
2023-05-18T03:26:11.460Z,99970.94
2023-05-18T03:28:38.715Z,99973.50
2023-05-18T03:31:05.710Z,99966.47
2023-05-18T03:33:32.363Z,99965.44
2023-05-18T03:36:03.548Z,99966.91
2023-05-18T03:38:33.089Z,99968.63
2023-05-18T03:41:02.495Z,99965.16
2023-05-18T03:43:32.367Z,99970.59
2023-05-18T03:45:58.962Z,99964.69
2023-05-18T03:48:27.232Z,99970.50
2023-05-18T03:50:53.753Z,99970.72
2023-05-18T03:53:21.568Z,99962.25
2023-05-18T03:55:51.714Z,99967.50
2023-05-18T03:58:21.137Z,99974.44
2023-05-18T04:00:49.464Z,99972.84
2023-05-18T04:03:21.548Z,99977.41
2023-05-18T04:05:49.699Z,99967.59
2023-05-18T04:08:18.056Z,99972.66
2023-05-18T04:10:45.541Z,99980.66
2023-05-18T04:13:12.425Z,99969.34
2023-05-18T04:15:39.000Z,99972.13
2023-05-18T04:18:05.666Z,99979.19
2023-05-18T04:20:32.382Z,99987.16
2023-05-18T04:22:59.071Z,99986.38
2023-05-18T04:25:28.063Z,99989.03
2023-05-18T04:27:56.112Z,99986.31
2023-05-18T04:30:23.410Z,99986.53
2023-05-18T04:32:51.091Z,99989.16
2023-05-18T04:35:18.598Z,99988.53
2023-05-18T04:37:45.315Z,99992.53
2023-05-18T04:40:17.523Z,99992.53
2023-05-18T04:42:48.443Z,99996.41
2023-05-18T04:45:17.167Z,99997.25
2023-05-18T04:47:46.857Z,99994.72
2023-05-18T04:50:16.047Z,100001.28
2023-05-18T04:52:48.455Z,99998.72
2023-05-18T04:55:20.068Z,100001.28
2023-05-18T04:57:47.636Z,99994.56
2023-05-18T05:00:15.054Z,100002.88
2023-05-18T05:02:41.617Z,100004.97
2023-05-18T05:05:08.792Z,99996.13
2023-05-18T05:07:35.349Z,100001.91
2023-05-18T05:10:02.270Z,99998.84
2023-05-18T05:12:28.884Z,100003.28
2023-05-18T05:14:55.594Z,99991.03
2023-05-18T05:17:24.140Z,100003.97
2023-05-18T05:19:53.678Z,99997.63
2023-05-18T05:22:20.435Z,99994.00
2023-05-18T05:24:47.073Z,99994.00
2023-05-18T05:27:13.644Z,99996.47
2023-05-18T05:29:40.212Z,99992.19
2023-05-18T05:32:07.273Z,99995.53
2023-05-18T05:34:33.780Z,99995.53
2023-05-18T05:37:00.271Z,99999.66
2023-05-18T05:39:26.817Z,100000.03
2023-05-18T05:41:53.343Z,100001.88
2023-05-18T05:44:19.830Z,99994.09
2023-05-18T05:46:46.420Z,99997.47
2023-05-18T05:49:12.922Z,100000.34
2023-05-18T05:51:39.490Z,99997.34
2023-05-18T05:54:06.088Z,99995.09
2023-05-18T05:56:32.622Z,99999.63
2023-05-18T05:58:59.521Z,100000.66
2023-05-18T06:01:26.151Z,100002.81
2023-05-18T06:03:52.698Z,99993.34
2023-05-18T06:06:19.279Z,99988.47
2023-05-18T06:08:45.770Z,99996.63
2023-05-18T06:11:12.806Z,100004.63
2023-05-18T06:13:39.432Z,100005.16
2023-05-18T06:16:06.083Z,100002.28
2023-05-18T06:18:32.689Z,99994.56
2023-05-18T06:20:59.258Z,100006.13
2023-05-18T06:23:26.154Z,100009.72
2023-05-18T06:25:55.209Z,100009.63
2023-05-18T06:28:21.977Z,100009.94
2023-05-18T06:30:48.656Z,100008.28
2023-05-18T06:33:15.228Z,100010.69
2023-05-18T06:35:42.234Z,100013.69
2023-05-18T06:38:08.880Z,100007.47
2023-05-18T06:40:35.595Z,100022.41
2023-05-18T06:43:02.282Z,100024.28
2023-05-18T06:45:29.024Z,100026.06
2023-05-18T06:47:55.949Z,100025.13
2023-05-18T06:50:23.020Z,100025.34
2023-05-18T06:52:49.604Z,100031.50
2023-05-18T06:55:16.201Z,100022.81
2023-05-18T06:57:42.966Z,100024.59
2023-05-18T07:00:12.385Z,100026.28
2023-05-18T07:02:39.939Z,100024.56
2023-05-18T07:05:09.057Z,100030.66
2023-05-18T07:07:37.680Z,100035.81
2023-05-18T07:10:04.903Z,100030.97
2023-05-18T07:12:31.503Z,100030.44
2023-05-18T07:14:58.031Z,100025.13
2023-05-18T07:17:24.614Z,100035.03
2023-05-18T07:19:51.142Z,100030.63
2023-05-18T07:22:17.698Z,100036.91
2023-05-18T07:24:44.227Z,100026.41
2023-05-18T07:27:11.037Z,100030.94
2023-05-18T07:29:37.687Z,100030.06
2023-05-18T07:32:04.544Z,100033.00
2023-05-18T07:34:31.415Z,100033.41
2023-05-18T07:36:58.236Z,100031.00
2023-05-18T07:39:28.836Z,100030.97
2023-05-18T07:41:56.396Z,100030.28
2023-05-18T07:44:22.982Z,100034.69
2023-05-18T07:46:49.689Z,100036.75
2023-05-18T07:49:16.333Z,100038.13
2023-05-18T07:51:42.851Z,100034.91
2023-05-18T07:54:09.386Z,100033.38
2023-05-18T07:56:36.115Z,100037.41
2023-05-18T07:59:02.975Z,100024.13
2023-05-18T08:01:30.348Z,100030.34
2023-05-18T08:03:57.103Z,100025.06
2023-05-18T08:06:24.088Z,100029.50
2023-05-18T08:08:50.693Z,100027.16
2023-05-18T08:11:17.319Z,100027.41
2023-05-18T08:13:43.933Z,100034.63
2023-05-18T08:16:12.349Z,100022.44
2023-05-18T08:18:39.471Z,100027.59
2023-05-18T08:21:09.382Z,100027.94
2023-05-18T08:23:36.633Z,100036.78
2023-05-18T08:26:03.653Z,100028.69
2023-05-18T08:28:31.421Z,100037.81
2023-05-18T08:30:58.440Z,100033.44
2023-05-18T08:33:25.770Z,100029.94
2023-05-18T08:35:52.696Z,100034.41
2023-05-18T08:38:19.363Z,100025.75
2023-05-18T08:41:11.240Z,100027.66
2023-05-18T08:43:40.666Z,100033.28
2023-05-18T08:46:26.371Z,100027.22
2023-05-18T08:48:54.909Z,100028.59
2023-05-18T08:51:29.856Z,100022.41
2023-05-18T08:53:57.149Z,100022.88
2023-05-18T08:56:25.228Z,100014.34
2023-05-18T08:58:55.714Z,100022.69
2023-05-18T09:01:28.372Z,100030.28
2023-05-18T09:04:00.691Z,100027.50
2023-05-18T09:06:28.542Z,100021.19
2023-05-18T09:08:58.232Z,100032.81
2023-05-18T09:11:26.959Z,100022.09
2023-05-18T09:13:54.804Z,100021.53
2023-05-18T09:16:21.462Z,100011.97
2023-05-18T09:18:48.063Z,100015.34
2023-05-18T09:21:14.648Z,100010.78
2023-05-18T09:23:41.576Z,100007.34
2023-05-18T09:26:11.522Z,100000.38
2023-05-18T09:28:39.468Z,99999.44
2023-05-18T09:31:09.084Z,100005.72
2023-05-18T09:33:37.553Z,99997.78
2023-05-18T09:36:06.066Z,99998.75
2023-05-18T09:38:45.734Z,100007.69
2023-05-18T09:41:17.507Z,100002.34
2023-05-18T09:43:53.297Z,100003.09
2023-05-18T09:46:21.015Z,100003.16
2023-05-18T09:48:51.452Z,100000.56
2023-05-18T09:51:18.342Z,100013.00
2023-05-18T09:53:49.716Z,100000.56
2023-05-18T09:56:17.916Z,100001.56
2023-05-18T09:58:46.071Z,100001.53
2023-05-18T10:01:12.597Z,100003.34
2023-05-18T10:03:39.408Z,99994.50
2023-05-18T10:06:08.210Z,99997.22
2023-05-18T10:08:36.054Z,100004.31
2023-05-18T10:11:03.321Z,100001.75
2023-05-18T10:13:31.796Z,99998.25
2023-05-18T10:16:07.517Z,99997.38
2023-05-18T10:18:38.710Z,99994.66
2023-05-18T10:21:09.762Z,99990.19
2023-05-18T10:23:37.243Z,99993.75
2023-05-18T10:26:07.758Z,99989.31
2023-05-18T10:28:42.364Z,99985.84
2023-05-18T10:31:09.460Z,99971.66
2023-05-18T10:33:37.947Z,99972.50
2023-05-18T10:36:05.508Z,99973.34
2023-05-18T10:38:34.569Z,99967.19
2023-05-18T10:41:01.668Z,99975.13
2023-05-18T10:43:28.947Z,99975.13
2023-05-18T10:46:09.231Z,99967.16
2023-05-18T10:48:39.198Z,99976.84
2023-05-18T10:51:07.961Z,99970.59
2023-05-18T10:53:34.804Z,99972.44
2023-05-18T10:56:01.781Z,99974.22
2023-05-18T10:58:30.742Z,99968.97
2023-05-18T11:00:59.374Z,99964.53
2023-05-18T11:03:27.410Z,99968.09
2023-05-18T11:06:10.256Z,99960.09
2023-05-18T11:08:47.886Z,99960.09
2023-05-18T11:11:19.869Z,99974.25
2023-05-18T11:13:51.366Z,99964.53
2023-05-18T11:16:19.502Z,99961.00
2023-05-18T11:18:50.872Z,99953.88
2023-05-18T11:21:32.611Z,99961.84
2023-05-18T11:24:17.722Z,99961.88
2023-05-18T11:26:49.926Z,99956.53
2023-05-18T11:29:46.495Z,99953.88
2023-05-18T11:32:32.587Z,99948.50
2023-05-18T11:34:59.910Z,99947.59
2023-05-18T11:37:55.855Z,99942.13
2023-05-18T11:40:44.792Z,99935.69
2023-05-18T11:43:27.690Z,99942.03
2023-05-18T11:45:58.948Z,99942.25
2023-05-18T11:48:27.493Z,99944.13
2023-05-18T11:50:55.008Z,99947.66
2023-05-18T11:53:26.384Z,99937.91
2023-05-18T11:55:54.728Z,99941.44
2023-05-18T11:58:26.293Z,99942.31
2023-05-18T12:00:55.879Z,99943.19
2023-05-18T12:03:26.653Z,99942.28
2023-05-18T12:05:54.124Z,99948.47
2023-05-18T12:08:21.805Z,99951.09
2023-05-18T12:10:51.116Z,99946.63
2023-05-18T12:13:17.955Z,99946.63
2023-05-18T12:15:45.605Z,99951.09
2023-05-18T12:18:12.565Z,99936.94
2023-05-18T12:20:40.818Z,99940.56
2023-05-18T12:23:07.519Z,99935.19
2023-05-18T12:25:34.209Z,99935.25
2023-05-18T12:28:02.090Z,99937.91
2023-05-18T12:30:35.076Z,99937.91
2023-05-18T12:33:03.202Z,99936.09
2023-05-18T12:35:31.146Z,99933.44
2023-05-18T12:38:00.815Z,99947.59
2023-05-18T12:40:28.554Z,99939.63
2023-05-18T12:42:59.531Z,99931.56
2023-05-18T12:45:28.454Z,99927.81
2023-05-18T12:47:56.212Z,99935.03
2023-05-18T12:50:26.452Z,99929.72
2023-05-18T12:52:55.287Z,99934.25
2023-05-18T12:55:22.706Z,99920.91
2023-05-18T12:58:18.102Z,99923.50
2023-05-18T13:00:49.180Z,99926.22
2023-05-18T13:03:22.206Z,99927.19
2023-05-18T13:06:12.365Z,99929.88
2023-05-18T13:08:39.023Z,99917.47
2023-05-18T13:11:13.796Z,99922.78
2023-05-18T13:14:05.041Z,99923.69
2023-05-18T13:16:34.648Z,99916.59
2023-05-18T13:19:04.355Z,99917.44
2023-05-18T13:21:31.097Z,99919.16
2023-05-18T13:23:57.825Z,99922.75
2023-05-18T13:26:28.788Z,99919.22
2023-05-18T13:28:56.549Z,99921.00
2023-05-18T13:31:25.180Z,99915.63
2023-05-18T13:33:52.114Z,99927.13
2023-05-18T13:36:19.368Z,99912.06
2023-05-18T13:38:46.060Z,99908.47
2023-05-18T13:41:14.969Z,99905.78
2023-05-18T13:43:42.672Z,99903.22
2023-05-18T13:46:12.032Z,99907.69
2023-05-18T13:48:38.675Z,99894.41
2023-05-18T13:51:05.272Z,99900.56
2023-05-18T13:53:31.884Z,99894.31
2023-05-18T13:55:58.406Z,99904.13
2023-05-18T13:58:24.985Z,99889.94
2023-05-18T14:00:53.729Z,99893.47
2023-05-18T14:03:20.460Z,99895.25
2023-05-18T14:05:47.115Z,99890.81
2023-05-18T14:08:13.677Z,99890.81
2023-05-18T14:10:40.459Z,99884.59
2023-05-18T14:13:08.474Z,99881.06
2023-05-18T14:15:35.019Z,99881.03
2023-05-18T14:18:01.620Z,99880.16
2023-05-18T14:20:29.335Z,99880.13
2023-05-18T14:22:56.371Z,99875.69
2023-05-18T14:25:22.848Z,99880.13
2023-05-18T14:27:49.402Z,99873.03
2023-05-18T14:30:16.076Z,99872.13
2023-05-18T14:32:42.686Z,99872.16
2023-05-18T14:35:09.425Z,99871.31
2023-05-18T14:37:35.992Z,99882.84
2023-05-18T14:40:02.519Z,99865.97
2023-05-18T14:42:29.597Z,99877.53
2023-05-18T14:44:56.144Z,99868.63
2023-05-18T14:47:23.800Z,99870.44
2023-05-18T14:49:50.411Z,99869.50
2023-05-18T14:52:16.964Z,99865.97
2023-05-18T14:54:43.556Z,99872.22
2023-05-18T14:57:10.344Z,99860.66
2023-05-18T14:59:36.957Z,99870.41
2023-05-18T15:02:03.565Z,99870.41
2023-05-18T15:04:30.139Z,99871.28
2023-05-18T15:06:57.131Z,99868.63
2023-05-18T15:09:25.288Z,99871.31
2023-05-18T15:11:53.234Z,99874.00
2023-05-18T15:14:20.029Z,99868.63
2023-05-18T15:16:46.842Z,99864.19
2023-05-18T15:19:13.643Z,99867.75
2023-05-18T15:21:40.325Z,99867.75
2023-05-18T15:24:07.313Z,99859.78
2023-05-18T15:26:34.174Z,99856.22
2023-05-18T15:29:00.693Z,99862.44
2023-05-18T15:31:27.251Z,99855.31
2023-05-18T15:33:53.802Z,99863.31
2023-05-18T15:36:21.659Z,99858.84
2023-05-18T15:38:48.218Z,99862.44
2023-05-18T15:41:14.867Z,99857.97
2023-05-18T15:43:41.831Z,99862.41
2023-05-18T15:46:08.466Z,99848.22
2023-05-18T15:48:35.033Z,99854.44
2023-05-18T15:51:01.636Z,99849.09
2023-05-18T15:53:28.222Z,99849.97
2023-05-18T15:55:58.759Z,99859.75
2023-05-18T15:58:26.466Z,99847.34
2023-05-18T16:00:57.137Z,99845.53
2023-05-18T16:03:23.877Z,99848.22
2023-05-18T16:05:50.576Z,99844.69
2023-05-18T16:08:17.101Z,99849.13
2023-05-18T16:10:43.625Z,99851.78
2023-05-18T16:13:10.115Z,99849.09
2023-05-18T16:15:36.961Z,99841.13
2023-05-18T16:18:03.849Z,99844.66
2023-05-18T16:20:30.784Z,99849.97
2023-05-18T16:22:58.322Z,99849.09
2023-05-18T16:25:25.296Z,99855.31
2023-05-18T16:27:51.997Z,99845.53
2023-05-18T16:30:18.547Z,99843.78
2023-05-18T16:32:45.223Z,99846.41
2023-05-18T16:35:12.296Z,99844.66
2023-05-18T16:37:39.147Z,99852.63
2023-05-18T16:40:06.725Z,99851.78
2023-05-18T16:42:33.422Z,99842.00
2023-05-18T16:44:59.974Z,99848.19
2023-05-18T16:47:27.693Z,99842.88
2023-05-18T16:49:54.578Z,99846.44
2023-05-18T16:52:21.573Z,99843.75
2023-05-18T16:54:48.296Z,99837.53
2023-05-18T16:57:15.187Z,99841.06
2023-05-18T16:59:44.988Z,99833.09
2023-05-18T17:02:13.980Z,99847.28
2023-05-18T17:04:41.402Z,99846.38
2023-05-18T17:07:09.908Z,99842.84
2023-05-18T17:09:40.116Z,99839.28
2023-05-18T17:12:07.828Z,99840.19
2023-05-18T17:14:34.425Z,99842.81
2023-05-18T17:17:01.130Z,99850.78
2023-05-18T17:19:27.676Z,99849.91
2023-05-18T17:21:54.473Z,99848.13
2023-05-18T17:24:20.991Z,99847.22
2023-05-18T17:26:47.492Z,99848.09
2023-05-18T17:29:17.129Z,99843.63
2023-05-18T17:31:45.789Z,99847.16
2023-05-18T17:34:12.418Z,99846.31
2023-05-18T17:36:39.085Z,99853.41
2023-05-18T17:39:05.638Z,99852.53
2023-05-18T17:41:33.154Z,99844.53
2023-05-18T17:44:02.321Z,99848.97
2023-05-18T17:46:29.112Z,99848.97
2023-05-18T17:48:55.821Z,99848.06
2023-05-18T17:51:24.714Z,99847.19
2023-05-18T17:53:51.633Z,99849.81
2023-05-18T17:56:18.384Z,99842.72
2023-05-18T17:58:45.012Z,99846.25
2023-05-18T18:01:12.145Z,99848.91
2023-05-18T18:03:39.014Z,99851.56
2023-05-18T18:06:05.838Z,99850.66
2023-05-18T18:08:32.407Z,99842.66
2023-05-18T18:10:59.031Z,99847.03
2023-05-18T18:13:26.117Z,99847.03
2023-05-18T18:15:52.639Z,99849.69
2023-05-18T18:18:19.253Z,99849.63
2023-05-18T18:20:45.915Z,99856.66
2023-05-18T18:23:12.438Z,99856.56
2023-05-18T18:25:39.034Z,99855.72
2023-05-18T18:28:05.579Z,99850.38
2023-05-18T18:30:32.393Z,99853.91
2023-05-18T18:32:59.300Z,99855.66
2023-05-18T18:35:26.114Z,99857.38
2023-05-18T18:37:52.624Z,99859.16
2023-05-18T18:40:19.225Z,99857.31
2023-05-18T18:42:47.262Z,99862.59
2023-05-18T18:45:13.947Z,99852.78
2023-05-18T18:47:40.515Z,99858.97
2023-05-18T18:50:07.591Z,99859.84
2023-05-18T18:52:34.108Z,99858.91
2023-05-18T18:55:01.249Z,99861.53
2023-05-18T18:57:27.753Z,99861.53
2023-05-18T18:59:56.991Z,99870.38
2023-05-18T19:02:23.673Z,99866.81
2023-05-18T19:04:50.335Z,99873.84
2023-05-18T19:07:16.891Z,99870.28
2023-05-18T19:09:43.490Z,99875.50
2023-05-18T19:12:10.486Z,99872.81
2023-05-18T19:14:37.703Z,99872.72
2023-05-18T19:17:04.564Z,99868.34
2023-05-18T19:19:32.605Z,99877.22
2023-05-18T19:21:59.228Z,99880.78
2023-05-18T19:24:25.784Z,99874.50
2023-05-18T19:26:55.012Z,99883.31
2023-05-18T19:29:21.617Z,99892.06
2023-05-18T19:31:48.204Z,99895.59
2023-05-18T19:34:14.700Z,99882.34
2023-05-18T19:36:44.504Z,99892.06
2023-05-18T19:39:10.987Z,99888.41
2023-05-18T19:41:38.135Z,99884.03
2023-05-18T19:44:04.627Z,99881.44
2023-05-18T19:46:31.407Z,99877.03
2023-05-18T19:48:57.930Z,99884.13
2023-05-18T19:51:27.143Z,99892.06
2023-05-18T19:53:53.621Z,99878.75
2023-05-18T19:56:22.144Z,99887.47
2023-05-18T19:58:49.413Z,99889.91
2023-05-18T20:01:19.183Z,99887.97
2023-05-18T20:03:47.121Z,99892.38
2023-05-18T20:06:16.992Z,99893.25
2023-05-18T20:08:43.602Z,99887.06
2023-05-18T20:11:16.480Z,99894.97
2023-05-18T20:13:43.774Z,99894.00
2023-05-18T20:16:10.347Z,99895.75
2023-05-18T20:18:37.480Z,99896.56
2023-05-18T20:21:04.179Z,99893.03
2023-05-18T20:23:30.743Z,99892.25
2023-05-18T20:25:57.326Z,99891.47
2023-05-18T20:28:26.132Z,99891.50
2023-05-18T20:30:52.658Z,99891.50
2023-05-18T20:33:19.364Z,99898.53
2023-05-18T20:35:46.057Z,99902.00
2023-05-18T20:38:16.141Z,99902.00
2023-05-18T20:40:46.294Z,99902.75
2023-05-18T20:43:18.083Z,99904.41
2023-05-18T20:45:52.494Z,99904.34
2023-05-18T20:48:24.946Z,99904.28
2023-05-18T20:50:52.282Z,99899.94
2023-05-18T20:53:19.603Z,99904.28
2023-05-18T20:55:49.843Z,99900.06
2023-05-18T20:58:19.858Z,99896.44
2023-05-18T21:00:46.655Z,99899.91
2023-05-18T21:03:21.655Z,99892.06
2023-05-18T21:05:49.868Z,99897.47
2023-05-18T21:08:21.327Z,99904.50
2023-05-18T21:10:47.812Z,99899.84
2023-05-18T21:13:15.056Z,99904.16
2023-05-18T21:15:41.689Z,99901.50
2023-05-18T21:18:08.432Z,99903.34
2023-05-18T21:20:34.975Z,99905.00
2023-05-18T21:23:01.508Z,99907.41
2023-05-18T21:25:31.132Z,99900.41
2023-05-18T21:28:01.068Z,99905.81
2023-05-18T21:30:27.608Z,99909.34
2023-05-18T21:32:54.493Z,99906.00
2023-05-18T21:35:21.065Z,99905.28
2023-05-18T21:37:51.068Z,99907.00
2023-05-18T21:40:20.941Z,99904.28
2023-05-18T21:42:47.511Z,99907.78
2023-05-18T21:45:14.567Z,99908.66
2023-05-18T21:47:41.153Z,99914.81
2023-05-18T21:50:11.986Z,99912.19
2023-05-18T21:52:38.472Z,99914.00
2023-05-18T21:55:05.659Z,99916.59
2023-05-18T21:57:33.024Z,99913.97
2023-05-18T22:00:02.282Z,99919.25
2023-05-18T22:02:28.835Z,99916.59
2023-05-18T22:04:55.669Z,99913.00
2023-05-18T22:07:22.184Z,99916.44
2023-05-18T22:09:50.771Z,99908.53
2023-05-18T22:12:17.817Z,99913.78
2023-05-18T22:14:44.342Z,99906.72
2023-05-18T22:17:10.935Z,99902.19
2023-05-18T22:19:37.571Z,99911.03
2023-05-18T22:22:04.216Z,99908.31
2023-05-18T22:24:34.005Z,99905.75
2023-05-18T22:27:05.977Z,99900.50
2023-05-18T22:29:32.453Z,99913.75
2023-05-18T22:31:59.068Z,99906.63
2023-05-18T22:34:25.784Z,99904.00
2023-05-18T22:36:52.321Z,99909.31
2023-05-18T22:39:19.072Z,99901.19
2023-05-18T22:41:45.625Z,99902.50
2023-05-18T22:44:12.677Z,99901.25
2023-05-18T22:46:42.343Z,99896.72
2023-05-18T22:49:08.916Z,99899.09
2023-05-18T22:51:38.417Z,99899.31
2023-05-18T22:54:05.031Z,99892.53
2023-05-18T22:56:31.602Z,99896.22
2023-05-18T22:58:58.153Z,99898.06
2023-05-18T23:01:24.825Z,99896.44
2023-05-18T23:03:51.383Z,99900.78
2023-05-18T23:06:22.325Z,99893.78
2023-05-18T23:08:53.219Z,99892.88
2023-05-18T23:11:19.918Z,99892.91
2023-05-18T23:13:46.421Z,99887.59
2023-05-18T23:16:13.033Z,99893.72
2023-05-18T23:18:39.594Z,99890.09
2023-05-18T23:21:14.890Z,99888.31
2023-05-18T23:23:45.596Z,99895.38
2023-05-18T23:26:12.650Z,99894.38
2023-05-18T23:28:39.216Z,99895.16
2023-05-18T23:31:05.837Z,99885.47
2023-05-18T23:33:32.861Z,99886.38
2023-05-18T23:36:03.946Z,99890.75
2023-05-18T23:38:35.049Z,99888.97
2023-05-18T23:41:03.500Z,99888.84
2023-05-18T23:43:30.428Z,99887.81
2023-05-18T23:45:59.554Z,99884.19
2023-05-18T23:48:38.433Z,99878.88
2023-05-18T23:51:05.703Z,99873.63
2023-05-18T23:53:34.472Z,99878.84
2023-05-18T23:56:06.000Z,99880.59
2023-05-18T23:58:32.811Z,99877.94
